sensor_id;sensor_type;location;lat;lon;timestamp;pressure;altitude;pressure_sealevel;temperature;humidity
54262;BME280;40174;52.364;6.452;2023-01-15T00:01:22;99426.75;;;5.97;100.00
54262;BME280;40174;52.364;6.452;2023-01-15T00:03:49;99432.72;;;5.99;100.00
54262;BME280;40174;52.364;6.452;2023-01-15T00:06:17;99430.56;;;5.93;100.00
54262;BME280;40174;52.364;6.452;2023-01-15T00:08:45;99425.69;;;5.88;100.00
54262;BME280;40174;52.364;6.452;2023-01-15T00:11:11;99424.88;;;5.88;100.00
54262;BME280;40174;52.364;6.452;2023-01-15T00:13:38;99433.81;;;5.85;100.00
54262;BME280;40174;52.364;6.452;2023-01-15T00:16:07;99435.59;;;5.84;100.00
54262;BME280;40174;52.364;6.452;2023-01-15T00:18:36;99431.19;;;5.85;100.00
54262;BME280;40174;52.364;6.452;2023-01-15T00:21:04;99433.69;;;5.87;100.00
54262;BME280;40174;52.364;6.452;2023-01-15T00:23:33;99425.00;;;5.86;100.00
54262;BME280;40174;52.364;6.452;2023-01-15T00:26:18;99433.94;;;5.83;100.00
54262;BME280;40174;52.364;6.452;2023-01-15T00:29:03;99428.69;;;5.83;100.00
54262;BME280;40174;52.364;6.452;2023-01-15T00:31:31;99428.94;;;5.80;100.00
54262;BME280;40174;52.364;6.452;2023-01-15T00:33:58;99434.06;;;5.82;100.00
54262;BME280;40174;52.364;6.452;2023-01-15T00:36:24;99438.97;;;5.75;100.00
54262;BME280;40174;52.364;6.452;2023-01-15T00:38:52;99433.75;;;5.75;100.00
54262;BME280;40174;52.364;6.452;2023-01-15T00:41:19;99439.31;;;5.82;100.00
54262;BME280;40174;52.364;6.452;2023-01-15T00:43:47;99435.16;;;5.79;100.00
54262;BME280;40174;52.364;6.452;2023-01-15T00:46:14;99435.41;;;5.76;100.00
54262;BME280;40174;52.364;6.452;2023-01-15T00:48:40;99441.88;;;5.72;100.00
54262;BME280;40174;52.364;6.452;2023-01-15T00:51:07;99441.50;;;5.77;100.00
54262;BME280;40174;52.364;6.452;2023-01-15T00:53:34;99435.53;;;5.75;100.00
54262;BME280;40174;52.364;6.452;2023-01-15T00:56:02;99425.44;;;5.70;100.00
54262;BME280;40174;52.364;6.452;2023-01-15T00:58:28;99429.00;;;5.69;100.00
54262;BME280;40174;52.364;6.452;2023-01-15T01:00:56;99436.03;;;5.69;100.00
54262;BME280;40174;52.364;6.452;2023-01-15T01:03:23;99438.78;;;5.67;100.00
54262;BME280;40174;52.364;6.452;2023-01-15T01:05:50;99445.56;;;5.70;100.00
54262;BME280;40174;52.364;6.452;2023-01-15T01:08:17;99432.00;;;5.65;100.00
54262;BME280;40174;52.364;6.452;2023-01-15T01:10:44;99426.03;;;5.62;100.00
54262;BME280;40174;52.364;6.452;2023-01-15T01:13:12;99429.50;;;5.63;100.00
54262;BME280;40174;52.364;6.452;2023-01-15T01:15:39;99439.28;;;5.61;100.00
54262;BME280;40174;52.364;6.452;2023-01-15T01:18:05;99449.06;;;5.59;100.00
54262;BME280;40174;52.364;6.452;2023-01-15T01:20:32;99453.72;;;5.55;100.00
54262;BME280;40174;52.364;6.452;2023-01-15T01:22:59;99446.94;;;5.53;100.00
54262;BME280;40174;52.364;6.452;2023-01-15T01:25:25;99456.47;;;5.54;100.00
54262;BME280;40174;52.364;6.452;2023-01-15T01:27:52;99446.09;;;5.52;100.00
54262;BME280;40174;52.364;6.452;2023-01-15T01:30:20;99457.31;;;5.54;100.00
54262;BME280;40174;52.364;6.452;2023-01-15T01:32:47;99452.44;;;5.50;100.00
54262;BME280;40174;52.364;6.452;2023-01-15T01:35:14;99455.78;;;5.52;100.00
54262;BME280;40174;52.364;6.452;2023-01-15T01:37:40;99458.75;;;5.47;100.00
54262;BME280;40174;52.364;6.452;2023-01-15T01:40:08;99449.09;;;5.48;100.00
54262;BME280;40174;52.364;6.452;2023-01-15T01:42:36;99455.28;;;5.47;100.00
54262;BME280;40174;52.364;6.452;2023-01-15T01:45:18;99458.06;;;5.45;100.00
54262;BME280;40174;52.364;6.452;2023-01-15T01:47:50;99458.16;;;5.44;100.00
54262;BME280;40174;52.364;6.452;2023-01-15T01:50:18;99455.28;;;5.47;100.00
54262;BME280;40174;52.364;6.452;2023-01-15T01:52:48;99466.03;;;5.44;100.00
54262;BME280;40174;52.364;6.452;2023-01-15T01:55:17;99462.59;;;5.43;100.00
54262;BME280;40174;52.364;6.452;2023-01-15T01:57:46;99465.31;;;5.41;100.00
54262;BME280;40174;52.364;6.452;2023-01-15T02:00:17;99469.03;;;5.39;100.00
54262;BME280;40174;52.364;6.452;2023-01-15T02:02:46;99466.84;;;5.44;100.00
54262;BME280;40174;52.364;6.452;2023-01-15T02:05:20;99454.13;;;5.39;100.00
54262;BME280;40174;52.364;6.452;2023-01-15T02:07:49;99467.22;;;5.39;100.00
54262;BME280;40174;52.364;6.452;2023-01-15T02:10:15;99465.81;;;5.35;100.00
54262;BME280;40174;52.364;6.452;2023-01-15T02:12:47;99463.53;;;5.42;100.00
54262;BME280;40174;52.364;6.452;2023-01-15T02:15:18;99460.56;;;5.35;100.00
54262;BME280;40174;52.364;6.452;2023-01-15T02:17:52;99463.31;;;5.34;100.00
54262;BME280;40174;52.364;6.452;2023-01-15T02:20:29;99468.56;;;5.34;100.00
54262;BME280;40174;52.364;6.452;2023-01-15T02:23:06;99462.47;;;5.33;100.00
54262;BME280;40174;52.364;6.452;2023-01-15T02:25:49;99460.81;;;5.32;100.00
54262;BME280;40174;52.364;6.452;2023-01-15T02:28:21;99463.31;;;5.34;100.00
54262;BME280;40174;52.364;6.452;2023-01-15T02:30:54;99453.78;;;5.33;100.00
54262;BME280;40174;52.364;6.452;2023-01-15T02:33:29;99451.06;;;5.34;100.00
54262;BME280;40174;52.364;6.452;2023-01-15T02:43:35;99447.97;;;5.29;100.00
54262;BME280;40174;52.364;6.452;2023-01-15T02:46:04;99449.75;;;5.29;100.00
54262;BME280;40174;52.364;6.452;2023-01-15T02:48:33;99448.44;;;5.34;100.00
54262;BME280;40174;52.364;6.452;2023-01-15T02:51:05;99443.56;;;5.30;100.00
54262;BME280;40174;52.364;6.452;2023-01-15T02:53:35;99446.28;;;5.28;100.00
54262;BME280;40174;52.364;6.452;2023-01-15T02:56:07;99451.06;;;5.23;100.00
54262;BME280;40174;52.364;6.452;2023-01-15T02:58:47;99446.91;;;5.20;100.00
54262;BME280;40174;52.364;6.452;2023-01-15T03:01:20;99447.16;;;5.17;100.00
54262;BME280;40174;52.364;6.452;2023-01-15T03:03:55;99441.34;;;5.14;100.00
54262;BME280;40174;52.364;6.452;2023-01-15T03:06:32;99443.81;;;5.15;100.00
54262;BME280;40174;52.364;6.452;2023-01-15T03:09:03;99438.34;;;5.18;100.00
54262;BME280;40174;52.364;6.452;2023-01-15T03:11:33;99432.63;;;5.13;100.00
54262;BME280;40174;52.364;6.452;2023-01-15T03:14:07;99435.50;;;5.10;100.00
54262;BME280;40174;52.364;6.452;2023-01-15T03:16:36;99424.91;;;5.12;100.00
54262;BME280;40174;52.364;6.452;2023-01-15T03:19:12;99427.91;;;5.07;100.00
54262;BME280;40174;52.364;6.452;2023-01-15T03:21:48;99425.28;;;5.07;100.00
54262;BME280;40174;52.364;6.452;2023-01-15T03:24:19;99421.34;;;5.02;100.00
54262;BME280;40174;52.364;6.452;2023-01-15T03:26:47;99413.84;;;5.08;100.00
54262;BME280;40174;52.364;6.452;2023-01-15T03:29:15;99414.47;;;5.00;100.00
54262;BME280;40174;52.364;6.452;2023-01-15T03:31:42;99415.28;;;5.01;100.00
54262;BME280;40174;52.364;6.452;2023-01-15T03:34:09;99417.19;;;4.99;100.00
54262;BME280;40174;52.364;6.452;2023-01-15T03:36:38;99415.53;;;4.98;100.00
54262;BME280;40174;52.364;6.452;2023-01-15T03:39:05;99419.09;;;4.97;100.00
54262;BME280;40174;52.364;6.452;2023-01-15T03:42:00;99431.47;;;4.95;100.00
54262;BME280;40174;52.364;6.452;2023-01-15T03:44:35;99430.91;;;4.91;100.00
54262;BME280;40174;52.364;6.452;2023-01-15T03:47:16;99430.75;;;4.93;100.00
54262;BME280;40174;52.364;6.452;2023-01-15T03:49:50;99424.59;;;4.94;100.00
54262;BME280;40174;52.364;6.452;2023-01-15T03:52:35;99424.13;;;4.89;100.00
54262;BME280;40174;52.364;6.452;2023-01-15T03:55:09;99429.47;;;4.87;100.00
54262;BME280;40174;52.364;6.452;2023-01-15T03:57:41;99424.94;;;4.89;100.00
54262;BME280;40174;52.364;6.452;2023-01-15T04:00:18;99424.13;;;4.89;100.00
54262;BME280;40174;52.364;6.452;2023-01-15T04:02:51;99410.44;;;4.85;100.00
54262;BME280;40174;52.364;6.452;2023-01-15T04:05:19;99415.41;;;4.88;100.00
54262;BME280;40174;52.364;6.452;2023-01-15T04:07:48;99414.13;;;4.83;100.00
54262;BME280;40174;52.364;6.452;2023-01-15T04:10:16;99414.13;;;4.83;100.00
54262;BME280;40174;52.364;6.452;2023-01-15T04:12:43;99417.81;;;4.80;100.00
54262;BME280;40174;52.364;6.452;2023-01-15T04:15:12;99412.34;;;4.83;100.00
54262;BME280;40174;52.364;6.452;2023-01-15T04:17:39;99419.00;;;4.87;100.00
54262;BME280;40174;52.364;6.452;2023-01-15T04:20:07;99416.59;;;4.84;100.00
54262;BME280;40174;52.364;6.452;2023-01-15T04:22:38;99407.34;;;4.80;100.00
54262;BME280;40174;52.364;6.452;2023-01-15T04:25:06;99418.66;;;4.81;100.00
54262;BME280;40174;52.364;6.452;2023-01-15T04:27:33;99411.88;;;4.78;100.00
54262;BME280;40174;52.364;6.452;2023-01-15T04:29:59;99411.97;;;4.76;100.00
54262;BME280;40174;52.364;6.452;2023-01-15T04:32:27;99404.50;;;4.72;100.00
54262;BME280;40174;52.364;6.452;2023-01-15T04:34:54;99409.38;;;4.76;100.00
54262;BME280;40174;52.364;6.452;2023-01-15T04:37:21;99416.13;;;4.79;100.00
54262;BME280;40174;52.364;6.452;2023-01-15T04:39:47;99410.56;;;4.72;100.00
54262;BME280;40174;52.364;6.452;2023-01-15T04:42:14;99418.28;;;4.74;100.00
54262;BME280;40174;52.364;6.452;2023-01-15T04:44:58;99415.06;;;4.70;100.00
54262;BME280;40174;52.364;6.452;2023-01-15T04:47:25;99422.94;;;4.70;100.00
54262;BME280;40174;52.364;6.452;2023-01-15T04:49:53;99417.94;;;4.67;100.00
54262;BME280;40174;52.364;6.452;2023-01-15T04:52:19;99419.13;;;4.63;100.00
54262;BME280;40174;52.364;6.452;2023-01-15T04:54:46;99420.09;;;4.62;100.00
54262;BME280;40174;52.364;6.452;2023-01-15T04:57:12;99415.69;;;4.63;100.00
54262;BME280;40174;52.364;6.452;2023-01-15T04:59:39;99417.69;;;4.59;100.00
54262;BME280;40174;52.364;6.452;2023-01-15T05:02:05;99418.66;;;4.58;100.00
54262;BME280;40174;52.364;6.452;2023-01-15T05:04:33;99409.03;;;4.58;100.00
54262;BME280;40174;52.364;6.452;2023-01-15T05:07:01;99416.16;;;4.56;100.00
54262;BME280;40174;52.364;6.452;2023-01-15T05:09:28;99409.28;;;4.55;100.00
54262;BME280;40174;52.364;6.452;2023-01-15T05:11:55;99417.84;;;4.57;100.00
54262;BME280;40174;52.364;6.452;2023-01-15T05:14:21;99418.88;;;4.55;100.00
54262;BME280;40174;52.364;6.452;2023-01-15T05:16:48;99411.88;;;4.55;100.00
54262;BME280;40174;52.364;6.452;2023-01-15T05:19:15;99413.78;;;4.53;100.00
54262;BME280;40174;52.364;6.452;2023-01-15T05:21:42;99418.31;;;4.51;100.00
54262;BME280;40174;52.364;6.452;2023-01-15T05:24:13;99414.25;;;4.47;100.00
54262;BME280;40174;52.364;6.452;2023-01-15T05:26:39;99412.34;;;4.49;100.00
54262;BME280;40174;52.364;6.452;2023-01-15T05:29:06;99410.09;;;4.45;100.00
54262;BME280;40174;52.364;6.452;2023-01-15T05:31:33;99409.28;;;4.44;100.00
54262;BME280;40174;52.364;6.452;2023-01-15T05:34:00;99409.28;;;4.44;100.00
54262;BME280;40174;52.364;6.452;2023-01-15T05:36:28;99416.16;;;4.45;100.00
54262;BME280;40174;52.364;6.452;2023-01-15T05:38:56;99431.84;;;4.45;100.00
54262;BME280;40174;52.364;6.452;2023-01-15T05:41:27;99418.41;;;4.50;100.00
54262;BME280;40174;52.364;6.452;2023-01-15T05:44:12;99423.75;;;4.48;100.00
54262;BME280;40174;52.364;6.452;2023-01-15T05:46:40;99415.09;;;4.48;100.00
54262;BME280;40174;52.364;6.452;2023-01-15T05:49:09;99404.03;;;4.44;100.00
54262;BME280;40174;52.364;6.452;2023-01-15T05:51:37;99400.72;;;4.42;100.00
54262;BME280;40174;52.364;6.452;2023-01-15T05:54:05;99399.03;;;4.41;100.00
54262;BME280;40174;52.364;6.452;2023-01-15T05:56:35;99400.94;;;4.39;100.00
54262;BME280;40174;52.364;6.452;2023-01-15T05:59:02;99398.91;;;4.43;100.00
54262;BME280;40174;52.364;6.452;2023-01-15T06:01:30;99412.94;;;4.42;100.00
54262;BME280;40174;52.364;6.452;2023-01-15T06:03:57;99388.09;;;4.36;100.00
54262;BME280;40174;52.364;6.452;2023-01-15T06:06:23;99393.31;;;4.36;100.00
54262;BME280;40174;52.364;6.452;2023-01-15T06:08:50;99399.97;;;4.29;100.00
54262;BME280;40174;52.364;6.452;2023-01-15T06:11:17;99396.03;;;4.23;100.00
54262;BME280;40174;52.364;6.452;2023-01-15T06:13:45;99396.19;;;4.22;100.00
54262;BME280;40174;52.364;6.452;2023-01-15T06:16:12;99392.84;;;4.20;100.00
54262;BME280;40174;52.364;6.452;2023-01-15T06:18:39;99397.56;;;4.14;100.00
54262;BME280;40174;52.364;6.452;2023-01-15T06:21:07;99391.59;;;4.01;100.00
54262;BME280;40174;52.364;6.452;2023-01-15T06:23:34;99414.91;;;3.93;100.00
54262;BME280;40174;52.364;6.452;2023-01-15T06:26:03;99402.56;;;3.95;100.00
54262;BME280;40174;52.364;6.452;2023-01-15T06:28:30;99397.78;;;3.89;100.00
54262;BME280;40174;52.364;6.452;2023-01-15T06:30:58;99406.44;;;3.89;100.00
54262;BME280;40174;52.364;6.452;2023-01-15T06:33:24;99400.75;;;3.84;100.00
54262;BME280;40174;52.364;6.452;2023-01-15T06:35:51;99395.75;;;3.81;100.00
54262;BME280;40174;52.364;6.452;2023-01-15T06:38:18;99389.56;;;3.82;100.00
54262;BME280;40174;52.364;6.452;2023-01-15T06:40:44;99395.50;;;3.84;100.00
54262;BME280;40174;52.364;6.452;2023-01-15T06:43:11;99398.38;;;3.81;100.00
54262;BME280;40174;52.364;6.452;2023-01-15T06:45:55;99397.50;;;3.81;100.00
54262;BME280;40174;52.364;6.452;2023-01-15T06:48:41;99396.06;;;3.77;100.00
54262;BME280;40174;52.364;6.452;2023-01-15T06:51:08;99400.38;;;3.78;100.00
54262;BME280;40174;52.364;6.452;2023-01-15T06:53:37;99390.25;;;3.73;100.00
54262;BME280;40174;52.364;6.452;2023-01-15T06:56:04;99391.09;;;3.73;100.00
54262;BME280;40174;52.364;6.452;2023-01-15T06:58:31;99385.97;;;3.72;100.00
54262;BME280;40174;52.364;6.452;2023-01-15T07:00:57;99382.75;;;3.68;100.00
54262;BME280;40174;52.364;6.452;2023-01-15T07:03:24;99382.41;;;3.73;100.00
54262;BME280;40174;52.364;6.452;2023-01-15T07:05:52;99373.03;;;3.70;100.00
54262;BME280;40174;52.364;6.452;2023-01-15T07:08:19;99376.47;;;3.71;100.00
54262;BME280;40174;52.364;6.452;2023-01-15T07:10:45;99371.34;;;3.69;100.00
54262;BME280;40174;52.364;6.452;2023-01-15T07:13:12;99374.19;;;3.66;100.00
54262;BME280;40174;52.364;6.452;2023-01-15T07:15:38;99369.81;;;3.67;100.00
54262;BME280;40174;52.364;6.452;2023-01-15T07:18:05;99375.75;;;3.69;100.00
54262;BME280;40174;52.364;6.452;2023-01-15T07:20:32;99394.38;;;3.64;100.00
54262;BME280;40174;52.364;6.452;2023-01-15T07:23:00;99380.16;;;3.68;100.00
54262;BME280;40174;52.364;6.452;2023-01-15T07:25:26;99387.38;;;3.65;100.00
54262;BME280;40174;52.364;6.452;2023-01-15T07:27:53;99385.72;;;3.64;100.00
54262;BME280;40174;52.364;6.452;2023-01-15T07:30:19;99386.31;;;3.67;100.00
54262;BME280;40174;52.364;6.452;2023-01-15T07:32:46;99385.00;;;3.62;100.00
54262;BME280;40174;52.364;6.452;2023-01-15T07:35:13;99389.84;;;3.55;100.00
54262;BME280;40174;52.364;6.452;2023-01-15T07:37:39;99388.41;;;3.51;100.00
54262;BME280;40174;52.364;6.452;2023-01-15T07:40:11;99398.13;;;3.49;100.00
54262;BME280;40174;52.364;6.452;2023-01-15T07:42:38;99399.28;;;3.45;100.00
54262;BME280;40174;52.364;6.452;2023-01-15T07:45:22;99396.56;;;3.46;100.00
54262;BME280;40174;52.364;6.452;2023-01-15T07:48:08;99396.28;;;3.38;100.00
54262;BME280;40174;52.364;6.452;2023-01-15T07:50:53;99401.75;;;3.35;100.00
54262;BME280;40174;52.364;6.452;2023-01-15T07:53:19;99395.81;;;3.33;100.00
54262;BME280;40174;52.364;6.452;2023-01-15T07:55:47;99399.88;;;3.37;100.00
54262;BME280;40174;52.364;6.452;2023-01-15T07:58:14;99402.69;;;3.34;100.00
54262;BME280;40174;52.364;6.452;2023-01-15T08:00:40;99404.47;;;3.33;100.00
54262;BME280;40174;52.364;6.452;2023-01-15T08:03:07;99395.19;;;3.29;100.00
54262;BME280;40174;52.364;6.452;2023-01-15T08:05:34;99400.06;;;3.34;100.00
54262;BME280;40174;52.364;6.452;2023-01-15T08:08:00;99408.97;;;3.31;100.00
54262;BME280;40174;52.364;6.452;2023-01-15T08:10:27;99396.63;;;3.33;100.00
54262;BME280;40174;52.364;6.452;2023-01-15T08:12:55;99397.69;;;3.31;100.00
54262;BME280;40174;52.364;6.452;2023-01-15T08:15:40;99389.97;;;3.29;100.00
54262;BME280;40174;52.364;6.452;2023-01-15T08:18:08;99385.69;;;3.28;100.00
54262;BME280;40174;52.364;6.452;2023-01-15T08:20:35;99384.53;;;3.32;100.00
54262;BME280;40174;52.364;6.452;2023-01-15T08:23:01;99388.06;;;3.31;100.00
54262;BME280;40174;52.364;6.452;2023-01-15T08:25:28;99378.47;;;3.32;100.00
54262;BME280;40174;52.364;6.452;2023-01-15T08:27:59;99378.16;;;3.37;100.00
54262;BME280;40174;52.364;6.452;2023-01-15T08:30:27;99373.75;;;3.37;100.00
54262;BME280;40174;52.364;6.452;2023-01-15T08:32:58;99392.84;;;3.38;100.00
54262;BME280;40174;52.364;6.452;2023-01-15T08:35:24;99393.91;;;3.35;100.00
54262;BME280;40174;52.364;6.452;2023-01-15T08:37:51;99388.59;;;3.37;100.00
54262;BME280;40174;52.364;6.452;2023-01-15T08:40:18;99382.31;;;3.39;100.00
54262;BME280;40174;52.364;6.452;2023-01-15T08:42:44;99377.91;;;3.40;100.00
54262;BME280;40174;52.364;6.452;2023-01-15T08:45:12;99381.47;;;3.39;100.00
54262;BME280;40174;52.364;6.452;2023-01-15T08:47:39;99380.53;;;3.40;100.00
54262;BME280;40174;52.364;6.452;2023-01-15T08:50:06;99383.28;;;3.49;100.00
54262;BME280;40174;52.364;6.452;2023-01-15T08:52:33;99387.81;;;3.59;100.00
54262;BME280;40174;52.364;6.452;2023-01-15T08:55:00;99385.56;;;3.54;100.00
54262;BME280;40174;52.364;6.452;2023-01-15T08:57:26;99383.19;;;3.51;100.00
54262;BME280;40174;52.364;6.452;2023-01-15T08:59:53;99388.88;;;3.56;100.00
54262;BME280;40174;52.364;6.452;2023-01-15T09:02:21;99392.50;;;3.66;100.00
54262;BME280;40174;52.364;6.452;2023-01-15T09:04:47;99386.44;;;3.66;100.00
54262;BME280;40174;52.364;6.452;2023-01-15T09:07:16;99380.97;;;3.69;100.00
54262;BME280;40174;52.364;6.452;2023-01-15T09:09:43;99383.50;;;3.82;100.00
54262;BME280;40174;52.364;6.452;2023-01-15T09:12:09;99386.22;;;3.80;100.00
54262;BME280;40174;52.364;6.452;2023-01-15T09:14:36;99377.31;;;3.83;100.00
54262;BME280;40174;52.364;6.452;2023-01-15T09:17:02;99387.78;;;3.83;100.00
54262;BME280;40174;52.364;6.452;2023-01-15T09:19:30;99378.75;;;3.87;100.00
54262;BME280;40174;52.364;6.452;2023-01-15T09:21:57;99385.53;;;3.89;100.00
54262;BME280;40174;52.364;6.452;2023-01-15T09:24:23;99376.97;;;3.87;100.00
54262;BME280;40174;52.364;6.452;2023-01-15T09:26:50;99368.06;;;3.90;100.00
54262;BME280;40174;52.364;6.452;2023-01-15T09:29:17;99381.84;;;3.92;100.00
54262;BME280;40174;52.364;6.452;2023-01-15T09:31:44;99393.03;;;4.05;100.00
54262;BME280;40174;52.364;6.452;2023-01-15T09:34:10;99393.66;;;4.09;100.00
54262;BME280;40174;52.364;6.452;2023-01-15T09:36:38;99401.50;;;4.09;100.00
54262;BME280;40174;52.364;6.452;2023-01-15T09:39:05;99402.44;;;4.19;100.00
54262;BME280;40174;52.364;6.452;2023-01-15T09:41:48;99401.16;;;4.25;100.00
54262;BME280;40174;52.364;6.452;2023-01-15T09:44:42;99389.53;;;4.40;100.00
54262;BME280;40174;52.364;6.452;2023-01-15T09:47:13;99382.97;;;4.46;100.00
54262;BME280;40174;52.364;6.452;2023-01-15T09:50:01;99380.50;;;4.55;100.00
54262;BME280;40174;52.364;6.452;2023-01-15T09:52:41;99381.06;;;4.59;100.00
54262;BME280;40174;52.364;6.452;2023-01-15T09:55:15;99390.44;;;4.62;100.00
54262;BME280;40174;52.364;6.452;2023-01-15T09:57:43;99413.91;;;4.63;100.00
54262;BME280;40174;52.364;6.452;2023-01-15T10:00:16;99405.44;;;4.59;100.00
54262;BME280;40174;52.364;6.452;2023-01-15T10:02:45;99413.91;;;4.63;100.00
54262;BME280;40174;52.364;6.452;2023-01-15T10:05:18;99424.81;;;4.68;100.00
54262;BME280;40174;52.364;6.452;2023-01-15T10:07:54;99430.56;;;4.73;100.00
54262;BME280;40174;52.364;6.452;2023-01-15T10:10:23;99426.97;;;4.74;100.00
54262;BME280;40174;52.364;6.452;2023-01-15T10:12:53;99418.41;;;4.72;100.00
54262;BME280;40174;52.364;6.452;2023-01-15T10:15:28;99427.59;;;4.78;100.00
54262;BME280;40174;52.364;6.452;2023-01-15T10:17:59;99412.69;;;4.78;100.00
54262;BME280;40174;52.364;6.452;2023-01-15T10:20:47;99415.31;;;4.78;100.00
54262;BME280;40174;52.364;6.452;2023-01-15T10:23:32;99415.06;;;4.82;100.00
54262;BME280;40174;52.364;6.452;2023-01-15T10:26:02;99393.03;;;4.84;100.00
54262;BME280;40174;52.364;6.452;2023-01-15T10:28:48;99417.56;;;4.94;100.00
54262;BME280;40174;52.364;6.452;2023-01-15T10:31:19;99404.31;;;5.07;100.00
54262;BME280;40174;52.364;6.452;2023-01-15T10:34:05;99404.91;;;5.11;100.00
54262;BME280;40174;52.364;6.452;2023-01-15T10:36:39;99404.28;;;5.18;100.00
54262;BME280;40174;52.364;6.452;2023-01-15T10:39:15;99407.41;;;5.12;100.00
54262;BME280;40174;52.364;6.452;2023-01-15T10:41:52;99419.53;;;5.13;100.00
54262;BME280;40174;52.364;6.452;2023-01-15T10:44:27;99405.50;;;5.14;100.00
54262;BME280;40174;52.364;6.452;2023-01-15T10:47:00;99412.97;;;5.19;100.00
54262;BME280;40174;52.364;6.452;2023-01-15T10:49:29;99409.91;;;5.14;100.00
54262;BME280;40174;52.364;6.452;2023-01-15T10:51:57;99420.13;;;5.17;100.00
54262;BME280;40174;52.364;6.452;2023-01-15T10:54:33;99430.13;;;5.23;100.00
54262;BME280;40174;52.364;6.452;2023-01-15T10:57:06;99430.09;;;5.34;100.00
54262;BME280;40174;52.364;6.452;2023-01-15T10:59:41;99421.78;;;5.29;100.00
54262;BME280;40174;52.364;6.452;2023-01-15T11:02:22;99424.41;;;5.29;100.00
54262;BME280;40174;52.364;6.452;2023-01-15T11:04:50;99415.31;;;5.33;100.00
54262;BME280;40174;52.364;6.452;2023-01-15T11:07:18;99412.25;;;5.28;100.00
54262;BME280;40174;52.364;6.452;2023-01-15T11:09:47;99397.00;;;5.22;100.00
54262;BME280;40174;52.364;6.452;2023-01-15T11:12:20;99400.97;;;5.16;100.00
54262;BME280;40174;52.364;6.452;2023-01-15T11:15:12;99410.63;;;5.16;100.00
54262;BME280;40174;52.364;6.452;2023-01-15T11:17:56;99427.88;;;5.18;100.00
54262;BME280;40174;52.364;6.452;2023-01-15T11:20:44;99414.41;;;5.23;100.00
54262;BME280;40174;52.364;6.452;2023-01-15T11:23:13;99416.19;;;5.23;100.00
54262;BME280;40174;52.364;6.452;2023-01-15T11:25:49;99400.94;;;5.28;100.00
54262;BME280;40174;52.364;6.452;2023-01-15T11:28:16;99399.59;;;5.33;100.00
54262;BME280;40174;52.364;6.452;2023-01-15T11:30:52;99396.03;;;5.34;100.00
54262;BME280;40174;52.364;6.452;2023-01-15T11:33:21;99419.50;;;5.36;100.00
54262;BME280;40174;52.364;6.452;2023-01-15T11:35:49;99430.44;;;5.41;100.00
54262;BME280;40174;52.364;6.452;2023-01-15T11:38:16;99401.59;;;5.41;100.00
54262;BME280;40174;52.364;6.452;2023-01-15T11:40:52;99423.97;;;5.45;100.00
54262;BME280;40174;52.364;6.452;2023-01-15T11:43:20;99418.47;;;5.48;100.00
54262;BME280;40174;52.364;6.452;2023-01-15T11:46:24;99421.81;;;5.50;100.00
54262;BME280;40174;52.364;6.452;2023-01-15T11:49:09;99408.59;;;5.52;100.00
54262;BME280;40174;52.364;6.452;2023-01-15T11:51:55;99449.56;;;5.53;100.00
54262;BME280;40174;52.364;6.452;2023-01-15T11:54:24;99396.75;;;5.57;100.00
54262;BME280;40174;52.364;6.452;2023-01-15T11:56:53;99409.50;;;5.62;100.00
54262;BME280;40174;52.364;6.452;2023-01-15T11:59:21;99405.22;;;5.61;100.00
54262;BME280;40174;52.364;6.452;2023-01-15T12:01:50;99410.47;;;5.61;100.00
54262;BME280;40174;52.364;6.452;2023-01-15T12:04:26;99393.38;;;5.67;100.00
54262;BME280;40174;52.364;6.452;2023-01-15T12:06:54;99392.06;;;5.72;100.00
54262;BME280;40174;52.364;6.452;2023-01-15T12:09:28;99397.03;;;5.75;100.00
54262;BME280;40174;52.364;6.452;2023-01-15T12:12:06;99390.97;;;5.75;100.00
54262;BME280;40174;52.364;6.452;2023-01-15T12:14:48;99392.22;;;5.80;100.00
54262;BME280;40174;52.364;6.452;2023-01-15T12:17:49;99398.19;;;5.82;100.00
54262;BME280;40174;52.364;6.452;2023-01-15T12:20:23;99393.19;;;5.79;100.00
54262;BME280;40174;52.364;6.452;2023-01-15T12:23:07;99399.53;;;5.77;100.00
54262;BME280;40174;52.364;6.452;2023-01-15T12:25:47;99403.97;;;5.76;100.00
54262;BME280;40174;52.364;6.452;2023-01-15T12:28:21;99397.75;;;5.77;100.00
54262;BME280;40174;52.364;6.452;2023-01-15T12:30:57;99395.94;;;5.78;100.00
54262;BME280;40174;52.364;6.452;2023-01-15T12:33:34;99407.91;;;5.71;100.00
54262;BME280;40174;52.364;6.452;2023-01-15T12:36:09;99386.53;;;5.75;100.00
54262;BME280;40174;52.364;6.452;2023-01-15T12:38:46;99378.69;;;5.75;100.00
54262;BME280;40174;52.364;6.452;2023-01-15T12:41:18;99388.06;;;5.78;100.00
54262;BME280;40174;52.364;6.452;2023-01-15T12:43:53;99388.47;;;5.73;100.00
54262;BME280;40174;52.364;6.452;2023-01-15T12:46:41;99392.63;;;5.76;100.00
54262;BME280;40174;52.364;6.452;2023-01-15T12:49:18;99391.41;;;5.80;100.00
54262;BME280;40174;52.364;6.452;2023-01-15T12:51:52;99388.78;;;5.80;100.00
54262;BME280;40174;52.364;6.452;2023-01-15T12:54:22;99404.63;;;5.78;100.00
54262;BME280;40174;52.364;6.452;2023-01-15T12:56:58;99368.06;;;5.77;100.00
54262;BME280;40174;52.364;6.452;2023-01-15T12:59:32;99364.25;;;5.81;100.00
54262;BME280;40174;52.364;6.452;2023-01-15T13:02:09;99377.97;;;5.73;100.00
54262;BME280;40174;52.364;6.452;2023-01-15T13:04:43;99380.41;;;5.65;100.00
54262;BME280;40174;52.364;6.452;2023-01-15T13:07:16;99393.16;;;5.70;100.00
54262;BME280;40174;52.364;6.452;2023-01-15T13:09:47;99389.09;;;5.66;100.00
54262;BME280;40174;52.364;6.452;2023-01-15T13:12:18;99385.06;;;5.61;100.00
54262;BME280;40174;52.364;6.452;2023-01-15T13:14:46;99371.75;;;5.53;100.00
54262;BME280;40174;52.364;6.452;2023-01-15T13:17:19;99399.06;;;5.51;100.00
54262;BME280;40174;52.364;6.452;2023-01-15T13:19:57;99422.91;;;5.48;100.00
54262;BME280;40174;52.364;6.452;2023-01-15T13:22:28;99432.22;;;5.40;100.00
54262;BME280;40174;52.364;6.452;2023-01-15T13:25:25;99429.38;;;5.32;100.00
54262;BME280;40174;52.364;6.452;2023-01-15T13:28:07;99435.94;;;5.27;100.00